Time;durP1;ratioP1;P1;durP2;ratioP2;P2;SDS_P1;SDS_P2;PMS_P1;PMS_P2;Temp;Humidity;BMP_temperature;BMP_pressure;BME280_temperature;BME280_humidity;BME280_pressure;Samples;Min_cycle;Max_cycle;Signal;HPM_P1;HPM_P2
2022/04/21 00:00:36;;;;;;;4.22;3.00;;;18.70;47.60;;;;;;5037357;28;20173;-87
2022/04/21 00:03:02;;;;;;;4.18;3.08;;;18.70;47.60;;;;;;5037294;28;20171;-86
2022/04/21 00:05:32;;;;;;;3.30;2.95;;;18.70;47.70;;;;;;5053360;28;20247;-88
2022/04/21 00:07:58;;;;;;;7.15;2.88;;;18.70;47.70;;;;;;5003195;28;20182;-86
2022/04/21 00:10:24;;;;;;;4.15;2.85;;;18.70;47.70;;;;;;5053178;28;20168;-86
2022/04/21 00:12:51;;;;;;;4.78;2.83;;;18.70;47.70;;;;;;5036370;28;20535;-86
2022/04/21 00:15:22;;;;;;;3.90;3.05;;;18.60;47.60;;;;;;5053195;28;20305;-88
2022/04/21 00:17:48;;;;;;;4.43;2.95;;;18.70;47.80;;;;;;5019907;28;20178;-85
2022/04/21 00:20:14;;;;;;;3.58;2.70;;;18.70;47.80;;;;;;5053025;28;20501;-85
2022/04/21 00:25:21;;;;;;;3.88;2.83;;;18.60;47.80;;;;;;5052975;28;20180;-86
2022/04/21 00:27:51;;;;;;;4.18;2.90;;;18.70;47.70;;;;;;5036012;28;20258;-85
2022/04/21 00:30:17;;;;;;;4.68;3.13;;;18.60;47.80;;;;;;5019151;28;20186;-84
2022/04/21 00:32:45;;;;;;;6.18;3.05;;;18.60;47.70;;;;;;5053942;28;20684;-85
2022/04/21 00:35:12;;;;;;;4.35;2.88;;;18.60;47.70;;;;;;5018849;28;20274;-84
2022/04/21 00:37:49;;;;;;;4.53;3.10;;;18.60;47.60;;;;;;5035207;28;20224;-88
2022/04/21 00:40:17;;;;;;;4.70;3.22;;;18.60;47.80;;;;;;5002923;28;20277;-83
2022/04/21 00:42:42;;;;;;;7.50;3.00;;;18.60;47.70;;;;;;5019162;28;20178;-86
2022/04/21 00:45:10;;;;;;;4.32;2.80;;;18.60;47.90;;;;;;5036171;28;20621;-85
2022/04/21 00:47:40;;;;;;;3.40;3.00;;;18.60;47.80;;;;;;5034949;28;20232;-89
2022/04/21 00:50:10;;;;;;;3.35;3.05;;;18.60;47.90;;;;;;5003329;28;20244;-87
2022/04/21 00:52:36;;;;;;;4.55;3.00;;;18.60;47.90;;;;;;5018883;28;20225;-86
2022/04/21 00:55:07;;;;;;;5.75;3.20;;;18.60;47.90;;;;;;5035186;28;20174;-85
2022/04/21 00:57:34;;;;;;;3.75;3.00;;;18.60;48.00;;;;;;5018933;28;20192;-84
2022/04/21 01:00:05;;;;;;;4.93;3.20;;;18.60;47.90;;;;;;5036397;28;20170;-86
2022/04/21 01:05:15;;;;;;;3.13;2.83;;;18.60;48.00;;;;;;5052311;28;20158;-87
2022/04/21 01:07:41;;;;;;;6.53;3.15;;;18.50;48.00;;;;;;5052297;28;20154;-85
2022/04/21 01:10:12;;;;;;;4.88;2.95;;;18.50;48.00;;;;;;5035474;28;20219;-85
2022/04/21 01:12:39;;;;;;;5.88;3.00;;;18.50;48.00;;;;;;5034671;28;20217;-86
2022/04/21 01:15:05;;;;;;;4.00;3.10;;;18.50;48.10;;;;;;5052229;28;20166;-84
2022/04/21 01:17:33;;;;;;;4.35;2.97;;;18.40;48.10;;;;;;5053169;28;20150;-85
2022/04/21 01:19:59;;;;;;;5.25;3.00;;;18.50;48.10;;;;;;5052064;28;20256;-86
2022/04/21 01:22:25;;;;;;;5.70;3.20;;;18.50;48.10;;;;;;5053143;28;20262;-84
2022/04/21 01:24:51;;;;;;;5.75;2.80;;;18.50;48.10;;;;;;5052947;28;20216;-85
2022/04/21 01:27:22;;;;;;;7.95;3.08;;;18.50;48.20;;;;;;5052654;28;20615;-84
2022/04/21 01:29:49;;;;;;;3.38;2.95;;;18.50;48.00;;;;;;5018745;28;20182;-84
2022/04/21 01:32:18;;;;;;;3.60;3.25;;;18.50;48.20;;;;;;5052219;28;20197;-87
2022/04/21 01:34:44;;;;;;;3.85;3.20;;;18.50;48.10;;;;;;5018225;28;20523;-87
2022/04/21 01:42:35;;;;;;;5.50;3.20;;;18.50;48.00;;;;;;5051984;28;20165;-85
2022/04/21 01:45:01;;;;;;;3.22;2.92;;;18.50;48.20;;;;;;5053678;28;20162;-86
2022/04/21 01:47:27;;;;;;;5.03;3.10;;;18.50;48.30;;;;;;5053046;28;20166;-85
2022/04/21 01:49:52;;;;;;;3.28;2.90;;;18.50;48.10;;;;;;5055879;28;20256;-85
2022/04/21 01:52:18;;;;;;;4.95;3.30;;;18.40;48.20;;;;;;5055635;28;20558;-85
2022/04/21 01:54:50;;;;;;;3.22;2.88;;;18.40;48.20;;;;;;5039042;28;20162;-87
2022/04/21 01:57:19;;;;;;;3.10;2.80;;;18.40;48.10;;;;;;5039046;28;20284;-87
2022/04/21 01:59:49;;;;;;;3.65;3.00;;;18.40;48.20;;;;;;5038612;28;20656;-85
2022/04/21 02:02:16;;;;;;;4.60;3.20;;;18.50;48.20;;;;;;5006183;28;20217;-88
2022/04/21 02:04:43;;;;;;;4.65;3.30;;;18.40;48.30;;;;;;5038485;28;20670;-88
2022/04/21 02:07:11;;;;;;;5.18;2.80;;;18.40;48.20;;;;;;5054659;28;20300;-87
2022/04/21 02:09:37;;;;;;;3.97;2.72;;;18.40;48.20;;;;;;5021783;28;20288;-86
2022/04/21 02:12:06;;;;;;;4.20;3.20;;;18.40;48.90;;;;;;5038744;28;20725;-86
2022/04/21 02:14:35;;;;;;;5.55;3.10;;;18.40;48.20;;;;;;5005884;28;20182;-87
2022/04/21 02:17:05;;;;;;;5.03;3.25;;;18.40;48.20;;;;;;5021484;28;20189;-86
2022/04/21 02:19:34;;;;;;;4.90;3.30;;;18.40;48.20;;;;;;5039747;28;20162;-88
2022/04/21 02:22:01;;;;;;;3.20;2.90;;;18.40;48.30;;;;;;5037849;28;20190;-88
2022/04/21 02:24:31;;;;;;;3.50;3.17;;;18.40;48.20;;;;;;5021477;28;20300;-85
2022/04/21 02:26:59;;;;;;;3.95;3.42;;;18.40;48.30;;;;;;5021365;28;20660;-87
2022/04/21 02:29:26;;;;;;;3.63;3.10;;;18.40;48.30;;;;;;5021485;28;20277;-88
2022/04/21 02:31:53;;;;;;;4.55;2.97;;;18.40;48.20;;;;;;5021336;28;20217;-86
2022/04/21 02:34:20;;;;;;;3.05;2.75;;;18.40;48.30;;;;;;5037799;28;20633;-84
2022/04/21 02:36:48;;;;;;;3.78;3.30;;;18.40;48.20;;;;;;5037938;28;20605;-84
2022/04/21 02:39:15;;;;;;;9.52;3.38;;;18.40;48.30;;;;;;5037504;28;20178;-83
2022/04/21 02:41:42;;;;;;;4.60;2.95;;;18.30;48.30;;;;;;5037595;28;20590;-87
2022/04/21 02:44:09;;;;;;;4.28;3.13;;;18.40;48.30;;;;;;5037496;28;20186;-86
2022/04/21 02:46:36;;;;;;;4.28;2.70;;;18.40;48.50;;;;;;5037355;28;20182;-84
2022/04/21 02:49:03;;;;;;;4.32;3.00;;;18.40;48.30;;;;;;5020267;28;20282;-84
2022/04/21 02:51:30;;;;;;;3.20;2.90;;;18.40;48.50;;;;;;5004636;28;20244;-83
2022/04/21 02:59:23;;;;;;;3.35;2.95;;;18.40;48.30;;;;;;5054030;28;20181;-87
2022/04/21 03:01:51;;;;;;;3.47;3.03;;;18.40;48.40;;;;;;5020744;28;20193;-88
2022/04/21 03:04:18;;;;;;;4.20;2.92;;;18.30;48.40;;;;;;5037236;28;20178;-84
2022/04/21 03:06:46;;;;;;;3.72;2.80;;;18.30;48.40;;;;;;5037072;28;20208;-84
2022/04/21 03:09:13;;;;;;;4.72;3.00;;;18.40;48.30;;;;;;5037203;28;20209;-85
2022/04/21 03:11:39;;;;;;;3.40;2.95;;;18.40;48.50;;;;;;5020658;28;20209;-85
2022/04/21 03:14:06;;;;;;;3.53;3.00;;;18.40;48.50;;;;;;5037812;28;20167;-84
2022/04/21 03:16:33;;;;;;;4.20;2.75;;;18.40;48.40;;;;;;5004023;28;20542;-84
2022/04/21 03:18:59;;;;;;;3.55;2.88;;;18.40;48.50;;;;;;5020195;28;20640;-87
2022/04/21 03:24:21;;;;;;;3.53;3.17;;;18.30;48.50;;;;;;5039328;28;20275;-86
2022/04/21 03:26:50;;;;;;;4.15;2.67;;;18.30;48.50;;;;;;5038040;28;20200;-84
2022/04/21 03:29:16;;;;;;;3.30;3.00;;;18.30;48.50;;;;;;5020766;28;20193;-84
2022/04/21 03:31:43;;;;;;;3.08;2.78;;;18.30;48.60;;;;;;5037716;28;20198;-87
2022/04/21 03:34:16;;;;;;;5.47;3.03;;;18.20;48.50;;;;;;5037629;28;20592;-87
2022/04/21 03:36:48;;;;;;;4.95;3.00;;;18.40;48.50;;;;;;5036481;28;20185;-86
2022/04/21 03:39:16;;;;;;;3.50;3.10;;;18.30;48.60;;;;;;5021117;28;20182;-88
2022/04/21 03:41:46;;;;;;;4.03;2.92;;;18.20;48.50;;;;;;5037109;28;20659;-87
2022/04/21 03:44:14;;;;;;;3.45;3.15;;;18.30;48.60;;;;;;5036563;28;20174;-84
2022/04/21 03:46:42;;;;;;;4.43;3.00;;;18.30;48.60;;;;;;5019897;28;20228;-85
2022/04/21 03:49:07;;;;;;;7.00;3.05;;;18.30;48.70;;;;;;5003351;28;20261;-85
2022/04/21 03:51:36;;;;;;;5.07;3.03;;;18.30;48.70;;;;;;5053939;28;20311;-87
2022/04/21 03:54:04;;;;;;;3.80;2.88;;;18.30;48.70;;;;;;5036274;28;20181;-87
2022/04/21 03:56:33;;;;;;;3.00;2.70;;;18.30;48.60;;;;;;5036594;28;20571;-85
2022/04/21 03:59:03;;;;;;;3.55;3.08;;;18.30;48.80;;;;;;5019971;28;20178;-89
2022/04/21 04:01:30;;;;;;;4.68;2.80;;;18.20;48.50;;;;;;5019598;28;20193;-89
2022/04/21 04:03:58;;;;;;;3.30;3.00;;;18.30;48.70;;;;;;5019448;28;20190;-84
2022/04/21 04:11:45;;;;;;;3.30;3.00;;;18.30;48.70;;;;;;5037048;28;20225;-88
2022/04/21 04:14:13;;;;;;;3.92;2.90;;;18.30;48.70;;;;;;5035902;28;20178;-87
2022/04/21 04:16:41;;;;;;;3.53;2.78;;;18.30;48.70;;;;;;5019766;28;20189;-86
2022/04/21 04:19:08;;;;;;;5.55;2.92;;;18.30;48.60;;;;;;5019277;28;20545;-85
2022/04/21 04:21:36;;;;;;;5.45;3.25;;;18.30;48.60;;;;;;5054171;28;20159;-84
2022/04/21 04:24:06;;;;;;;4.25;2.90;;;18.30;48.60;;;;;;5051911;28;20193;-87
2022/04/21 04:26:35;;;;;;;4.25;3.00;;;18.30;48.60;;;;;;5019099;28;20672;-85
2022/04/21 04:29:03;;;;;;;3.70;3.30;;;18.30;48.60;;;;;;5018918;28;20220;-89
2022/04/21 04:31:33;;;;;;;3.78;3.00;;;18.30;48.30;;;;;;5019115;28;20309;-86
2022/04/21 04:34:01;;;;;;;3.63;2.90;;;18.40;48.40;;;;;;5019198;28;20185;-86
2022/04/21 04:36:29;;;;;;;3.67;2.55;;;18.40;48.40;;;;;;5019097;28;20173;-86
2022/04/21 04:38:56;;;;;;;3.47;3.15;;;18.40;48.30;;;;;;5035588;28;20235;-86
2022/04/21 04:44:09;;;;;;;3.00;2.70;;;18.40;47.90;;;;;;5023426;28;20611;-85
2022/04/21 04:46:38;;;;;;;4.85;2.80;;;18.50;47.80;;;;;;5035749;28;20186;-86
2022/04/21 04:49:06;;;;;;;3.25;2.63;;;18.50;47.70;;;;;;5019455;28;20583;-84
2022/04/21 04:51:34;;;;;;;3.88;3.00;;;18.50;47.70;;;;;;5019350;28;20206;-87
2022/04/21 04:54:05;;;;;;;2.72;2.53;;;18.50;48.00;;;;;;5018963;28;20209;-84
2022/04/21 04:56:32;;;;;;;3.35;2.90;;;18.50;47.80;;;;;;5020208;28;20648;-87
2022/04/21 04:58:59;;;;;;;2.90;2.60;;;18.50;47.80;;;;;;5019119;28;20218;-84
2022/04/21 05:01:33;;;;;;;3.25;2.60;;;18.50;47.80;;;;;;5018732;28;20186;-86
2022/04/21 05:04:03;;;;;;;3.88;2.60;;;18.50;47.70;;;;;;5035723;28;20204;-87
2022/04/21 05:06:36;;;;;;;3.85;2.70;;;18.50;47.60;;;;;;5035754;28;20267;-89
2022/04/21 05:09:02;;;;;;;3.28;2.80;;;18.60;47.60;;;;;;5020606;28;20178;-86
2022/04/21 05:11:33;;;;;;;3.65;2.80;;;18.50;47.90;;;;;;5035892;28;20233;-86
2022/04/21 05:14:00;;;;;;;3.97;2.83;;;18.50;48.00;;;;;;5035422;28;20181;-87
2022/04/21 05:16:27;;;;;;;3.05;2.70;;;18.50;47.60;;;;;;5002415;28;20182;-86
2022/04/21 05:18:55;;;;;;;2.80;2.50;;;18.60;47.60;;;;;;5052229;28;20211;-87
2022/04/21 05:21:21;;;;;;;3.17;2.88;;;18.60;47.20;;;;;;5051644;28;20162;-89
2022/04/21 05:23:47;;;;;;;3.55;2.92;;;18.50;47.50;;;;;;5035369;28;20165;-87
2022/04/21 05:26:17;;;;;;;5.18;2.92;;;18.60;47.10;;;;;;5053379;28;20249;-84
2022/04/21 05:28:44;;;;;;;3.10;2.80;;;18.70;47.30;;;;;;5034881;28;20264;-85
2022/04/21 05:31:11;;;;;;;4.28;3.03;;;18.70;47.30;;;;;;5051910;28;20208;-85
2022/04/21 05:33:38;;;;;;;3.25;2.50;;;18.70;47.40;;;;;;5035356;28;20176;-85
2022/04/21 05:36:08;;;;;;;2.97;2.67;;;18.60;47.10;;;;;;5052071;28;20154;-87
2022/04/21 05:38:34;;;;;;;3.60;2.80;;;18.70;47.10;;;;;;5034970;28;20174;-85
2022/04/21 05:41:04;;;;;;;3.13;2.50;;;18.70;47.10;;;;;;5035328;28;20700;-90
2022/04/21 05:43:39;;;;;;;3.50;2.78;;;18.70;47.10;;;;;;5018619;28;20186;-88
2022/04/21 05:46:06;;;;;;;3.17;2.67;;;18.70;46.90;;;;;;5052030;28;20260;-87
2022/04/21 05:48:32;;;;;;;4.13;2.67;;;18.70;47.00;;;;;;5053450;28;20159;-85
2022/04/21 05:50:58;;;;;;;4.28;2.58;;;18.70;47.20;;;;;;5052018;28;20158;-85
2022/04/21 05:53:28;;;;;;;3.65;2.70;;;18.70;47.00;;;;;;5035381;28;20165;-85
2022/04/21 05:55:54;;;;;;;4.28;2.60;;;18.60;47.40;;;;;;5002162;28;20182;-88
2022/04/21 05:58:25;;;;;;;2.92;2.60;;;18.50;47.50;;;;;;5052165;28;20169;-85
2022/04/21 06:00:55;;;;;;;3.08;2.58;;;18.60;47.50;;;;;;5002138;28;20490;-85
2022/04/21 06:03:25;;;;;;;2.58;2.38;;;18.60;47.90;;;;;;5018120;28;20232;-86
2022/04/21 06:05:55;;;;;;;3.10;2.80;;;18.50;47.20;;;;;;5018324;28;20648;-86
2022/04/21 06:08:21;;;;;;;2.70;2.50;;;18.60;47.30;;;;;;5001774;28;20205;-88
2022/04/21 06:10:47;;;;;;;2.80;2.60;;;18.60;47.40;;;;;;5051885;28;20209;-85
2022/04/21 06:13:15;;;;;;;2.85;2.65;;;18.60;47.30;;;;;;5053983;28;20593;-84
2022/04/21 06:15:45;;;;;;;3.13;2.65;;;18.70;48.20;;;;;;5037113;28;20170;-85
2022/04/21 06:18:11;;;;;;;2.70;2.50;;;18.60;47.10;;;;;;5002822;28;20641;-85
2022/04/21 06:20:37;;;;;;;2.60;2.40;;;18.60;47.40;;;;;;5035231;28;20205;-87
2022/04/21 06:23:05;;;;;;;2.95;2.35;;;18.60;48.20;;;;;;5052674;28;20176;-87
2022/04/21 06:25:33;;;;;;;3.50;2.80;;;18.60;47.30;;;;;;5018835;28;20181;-87
2022/04/21 06:28:05;;;;;;;3.53;2.35;;;18.60;47.40;;;;;;5003523;28;20182;-90
2022/04/21 06:30:36;;;;;;;2.80;2.50;;;18.50;47.50;;;;;;5020610;28;20578;-90
2022/04/21 06:33:09;;;;;;;2.20;2.00;;;18.60;47.60;;;;;;5003233;28;20221;-88
2022/04/21 06:35:36;;;;;;;4.38;2.78;;;18.50;47.60;;;;;;5023702;28;20666;-88
2022/04/21 06:38:09;;;;;;;3.00;2.70;;;18.50;47.60;;;;;;5021952;28;20189;-91
2022/04/21 06:40:39;;;;;;;2.70;2.25;;;18.50;47.60;;;;;;5026472;28;20663;-89
2022/04/21 06:48:26;;;;;;;2.78;2.55;;;18.50;47.30;;;;;;5039200;28;20186;-89
2022/04/21 06:50:54;;;;;;;2.90;2.58;;;18.60;47.50;;;;;;5038220;28;20264;-87
2022/04/21 06:53:21;;;;;;;3.38;2.40;;;18.60;47.40;;;;;;5037557;28;20276;-88
2022/04/21 06:55:48;;;;;;;3.80;3.00;;;18.60;47.30;;;;;;5021585;28;20277;-88
2022/04/21 06:58:13;;;;;;;2.95;2.50;;;18.60;47.50;;;;;;5021108;28;20178;-88
2022/04/21 07:00:41;;;;;;;3.60;2.42;;;18.60;47.50;;;;;;5041877;28;20617;-88
2022/04/21 07:03:08;;;;;;;2.85;2.45;;;18.60;47.50;;;;;;5039776;28;20174;-90
2022/04/21 07:05:34;;;;;;;3.85;2.83;;;18.70;47.20;;;;;;5040783;28;20162;-90
2022/04/21 07:08:04;;;;;;;2.60;2.40;;;18.70;47.10;;;;;;5038585;28;20162;-87
2022/04/21 07:10:35;;;;;;;3.58;2.70;;;18.70;47.10;;;;;;5025016;28;20247;-89
2022/04/21 07:13:13;;;;;;;3.83;2.97;;;18.60;47.20;;;;;;5021590;28;20218;-86
2022/04/21 07:15:43;;;;;;;3.17;2.40;;;18.70;47.00;;;;;;5027541;28;20177;-88
2022/04/21 07:18:13;;;;;;;2.60;2.40;;;18.70;47.10;;;;;;5042344;28;20190;-89
2022/04/21 07:20:39;;;;;;;2.40;2.20;;;18.80;47.10;;;;;;5040530;28;20273;-85
2022/04/21 07:23:05;;;;;;;2.80;2.50;;;18.80;47.00;;;;;;5055430;28;20163;-88
2022/04/21 07:25:36;;;;;;;2.85;2.35;;;18.70;47.10;;;;;;5038281;28;20166;-87
2022/04/21 07:28:02;;;;;;;2.95;2.65;;;18.70;47.10;;;;;;5020543;28;20177;-84
2022/04/21 07:30:28;;;;;;;2.53;2.33;;;18.70;47.30;;;;;;5037415;28;20540;-85
2022/04/21 07:32:54;;;;;;;3.58;2.60;;;18.70;47.20;;;;;;5037905;28;20202;-85
2022/04/21 07:35:20;;;;;;;3.30;2.40;;;18.70;47.10;;;;;;5037074;28;20192;-85
2022/04/21 07:37:46;;;;;;;2.88;2.55;;;18.70;47.00;;;;;;5037292;28;20173;-84
2022/04/21 07:40:13;;;;;;;2.40;2.20;;;18.80;47.20;;;;;;5055179;28;20605;-84
2022/04/21 07:42:39;;;;;;;2.58;2.33;;;18.80;47.70;;;;;;5053694;28;20235;-82
2022/04/21 07:45:06;;;;;;;3.45;2.50;;;18.80;46.90;;;;;;5053890;28;20161;-88
2022/04/21 07:47:32;;;;;;;2.72;2.40;;;18.80;47.00;;;;;;5054761;28;20605;-87
2022/04/21 07:49:58;;;;;;;3.50;2.60;;;18.80;47.10;;;;;;5053279;28;20230;-86
2022/04/21 07:55:08;;;;;;;2.80;2.47;;;18.70;47.10;;;;;;5053605;28;20165;-87
2022/04/21 07:57:34;;;;;;;3.30;2.42;;;18.70;47.10;;;;;;5053551;28;20180;-87
2022/04/21 08:00:00;;;;;;;2.85;2.42;;;18.70;47.10;;;;;;5036685;28;20216;-85
2022/04/21 08:02:26;;;;;;;4.57;2.60;;;18.80;47.10;;;;;;5053097;28;20169;-86
2022/04/21 08:04:52;;;;;;;2.63;2.20;;;18.70;47.00;;;;;;5053405;28;20237;-85
2022/04/21 08:07:21;;;;;;;3.08;2.55;;;18.70;47.10;;;;;;5054376;28;20150;-86
2022/04/21 08:09:47;;;;;;;3.35;2.50;;;18.70;47.20;;;;;;5054523;28;20254;-87
2022/04/21 08:12:13;;;;;;;2.53;2.30;;;18.80;46.90;;;;;;5036719;28;20273;-86
2022/04/21 08:14:42;;;;;;;2.60;2.35;;;18.70;47.30;;;;;;5053282;28;20158;-87
2022/04/21 08:17:08;;;;;;;3.67;2.53;;;18.80;46.90;;;;;;5019448;28;20174;-87
2022/04/21 08:19:34;;;;;;;3.42;2.38;;;18.80;47.10;;;;;;5053113;28;20548;-86
2022/04/21 08:22:04;;;;;;;2.72;2.50;;;18.80;47.20;;;;;;5036281;28;20216;-87
2022/04/21 08:32:43;;;;;;;2.70;2.17;;;18.70;46.90;;;;;;5038099;28;20229;-85
2022/04/21 08:35:13;;;;;;;2.60;2.40;;;18.80;46.60;;;;;;5020054;28;20177;-89
2022/04/21 08:37:41;;;;;;;5.03;2.40;;;18.80;46.70;;;;;;5019105;28;20539;-85
2022/04/21 08:40:13;;;;;;;2.58;2.20;;;18.90;46.80;;;;;;5003218;28;20181;-85
2022/04/21 08:42:40;;;;;;;2.55;2.20;;;18.90;46.80;;;;;;5018914;28;20182;-87
2022/04/21 08:45:08;;;;;;;2.40;2.20;;;18.90;46.60;;;;;;5018894;28;20177;-85
2022/04/21 08:47:36;;;;;;;3.50;2.40;;;18.90;46.70;;;;;;5031817;28;20175;-85
2022/04/21 08:50:07;;;;;;;3.25;2.33;;;18.90;46.90;;;;;;5015582;28;20215;-86
2022/04/21 08:52:37;;;;;;;2.45;2.25;;;18.90;46.90;;;;;;4999519;28;20214;-87
2022/04/21 08:55:06;;;;;;;2.75;2.45;;;18.80;47.00;;;;;;5016305;28;20198;-86
2022/04/21 08:57:41;;;;;;;3.03;2.47;;;18.80;46.90;;;;;;4999990;28;20518;-87
2022/04/21 09:00:08;;;;;;;2.25;2.05;;;18.80;46.60;;;;;;5018080;28;20155;-89
2022/04/21 09:02:44;;;;;;;3.92;2.40;;;18.90;46.40;;;;;;5000723;28;20258;-84
2022/04/21 09:05:10;;;;;;;2.35;2.15;;;18.90;47.40;;;;;;5015580;28;20155;-85
2022/04/21 09:07:46;;;;;;;2.78;2.40;;;18.90;46.60;;;;;;5015383;28;20213;-86
2022/04/21 09:10:15;;;;;;;2.80;2.10;;;18.90;46.40;;;;;;5014992;28;20150;-83
2022/04/21 09:12:52;;;;;;;2.33;2.13;;;18.90;46.70;;;;;;5031220;28;20218;-83
2022/04/21 09:15:19;;;;;;;2.60;2.40;;;18.90;46.40;;;;;;5015785;28;20618;-85
2022/04/21 09:17:47;;;;;;;2.75;2.55;;;18.90;46.40;;;;;;4987549;28;20178;-83
2022/04/21 09:20:19;;;;;;;2.60;2.10;;;18.90;46.20;;;;;;5039341;28;20162;-81
2022/04/21 09:22:49;;;;;;;2.25;2.05;;;19.00;46.30;;;;;;5038796;28;20181;-85
2022/04/21 09:25:16;;;;;;;2.90;2.40;;;18.90;46.50;;;;;;5042007;28;20636;-85
2022/04/21 09:27:48;;;;;;;3.53;2.08;;;18.90;46.60;;;;;;5052836;28;20158;-87
2022/04/21 09:30:17;;;;;;;2.88;2.45;;;18.90;46.50;;;;;;5003527;28;20343;-85
2022/04/21 09:33:02;;;;;;;3.10;2.35;;;18.90;46.40;;;;;;5018508;28;20264;-84
2022/04/21 09:35:28;;;;;;;2.42;2.22;;;18.90;46.50;;;;;;5018592;28;20177;-85
2022/04/21 09:37:58;;;;;;;2.70;2.50;;;19.00;46.30;;;;;;5052817;28;20158;-86
2022/04/21 09:40:28;;;;;;;3.65;2.50;;;18.90;46.50;;;;;;5035193;28;20293;-85
2022/04/21 09:42:54;;;;;;;4.05;2.33;;;18.90;46.10;;;;;;5035752;28;20182;-86
2022/04/21 09:48:10;;;;;;;3.45;2.38;;;19.00;46.30;;;;;;5037774;28;20184;-85
2022/04/21 09:50:42;;;;;;;2.90;2.30;;;19.00;46.30;;;;;;5035223;28;20233;-85
2022/04/21 09:53:24;;;;;;;3.58;2.40;;;19.00;46.20;;;;;;5019389;28;20217;-85
2022/04/21 09:56:09;;;;;;;3.80;2.17;;;19.00;46.30;;;;;;5019337;28;20181;-84
2022/04/21 09:58:43;;;;;;;3.85;2.13;;;19.00;46.70;;;;;;5008442;28;20663;-85
2022/04/21 10:01:11;;;;;;;5.03;2.40;;;19.00;46.30;;;;;;5019153;28;20188;-85
2022/04/21 10:03:41;;;;;;;2.60;2.40;;;18.90;46.50;;;;;;5034626;28;20235;-86
2022/04/21 10:06:10;;;;;;;2.78;2.30;;;18.90;46.50;;;;;;5018610;28;20174;-87
2022/04/21 10:08:42;;;;;;;2.55;2.22;;;19.00;46.60;;;;;;5019844;28;20209;-85
2022/04/21 10:11:10;;;;;;;2.45;2.15;;;18.90;46.60;;;;;;5006732;28;20188;-87
2022/04/21 10:13:37;;;;;;;2.40;2.20;;;18.90;46.60;;;;;;5006270;28;20185;-85
2022/04/21 10:16:04;;;;;;;2.47;2.17;;;18.90;46.40;;;;;;5038460;28;20538;-84
2022/04/21 10:18:31;;;;;;;2.33;2.00;;;19.00;46.40;;;;;;5039301;28;20176;-87
2022/04/21 10:21:03;;;;;;;2.83;2.00;;;19.00;46.30;;;;;;5038192;28;20273;-84
2022/04/21 10:23:32;;;;;;;2.50;2.30;;;19.00;46.30;;;;;;5022122;28;20178;-87
2022/04/21 10:26:10;;;;;;;2.67;2.20;;;19.00;46.50;;;;;;5038852;28;20186;-85
2022/04/21 10:28:40;;;;;;;2.35;2.15;;;18.90;46.70;;;;;;5022733;28;20193;-86
2022/04/21 10:31:28;;;;;;;2.28;2.08;;;18.90;46.70;;;;;;5005500;28;20189;-87
2022/04/21 10:33:58;;;;;;;2.33;2.13;;;19.00;46.20;;;;;;5055094;28;20292;-87
2022/04/21 10:36:42;;;;;;;3.95;2.30;;;18.90;46.10;;;;;;5006150;28;20276;-84
2022/04/21 10:39:23;;;;;;;3.30;2.22;;;19.00;46.00;;;;;;5021826;28;20178;-86
2022/04/21 10:42:09;;;;;;;2.40;2.20;;;19.00;46.20;;;;;;5056242;28;20245;-88
2022/04/21 10:44:51;;;;;;;3.13;2.25;;;19.00;45.80;;;;;;5022283;28;20184;-88
2022/04/21 10:47:36;;;;;;;3.90;2.13;;;19.00;46.10;;;;;;5039842;28;20185;-86
2022/04/21 10:50:31;;;;;;;2.35;2.15;;;18.90;46.30;;;;;;5056052;28;20218;-86
2022/04/21 10:58:51;;;;;;;2.30;2.10;;;18.90;46.40;;;;;;5050873;28;20707;-88
2022/04/21 11:01:28;;;;;;;2.40;2.20;;;18.90;46.30;;;;;;5059041;28;20178;-89
2022/04/21 11:04:17;;;;;;;4.32;2.20;;;18.90;46.40;;;;;;5022709;28;20186;-88
2022/04/21 11:06:47;;;;;;;2.60;2.38;;;18.90;46.40;;;;;;5044411;28;20207;-86
2022/04/21 11:10:17;;;;;;;;;;;;;;;;;;;;;
2022/04/21 11:12:50;;;;;;;2.40;2.10;;;19.00;46.00;;;;;;5034478;28;20234;-88
2022/04/21 11:15:50;;;;;;;2.50;2.30;;;19.00;46.20;;;;;;5040963;28;20212;-88
2022/04/21 11:18:33;;;;;;;2.55;2.20;;;19.00;46.20;;;;;;5028665;28;20182;-87
2022/04/21 11:21:26;;;;;;;5.82;2.28;;;18.90;46.50;;;;;;4983116;28;20187;-88
2022/04/21 11:24:02;;;;;;;2.42;1.73;;;19.00;46.40;;;;;;4982876;28;20187;-87
2022/04/21 11:26:31;;;;;;;2.75;2.00;;;19.00;46.20;;;;;;4948516;28;20183;-87
2022/04/21 11:29:03;;;;;;;3.13;2.13;;;19.00;46.10;;;;;;4981235;28;20183;-87
2022/04/21 11:31:35;;;;;;;2.40;2.20;;;18.90;46.20;;;;;;4982308;28;20670;-86
2022/04/21 11:34:15;;;;;;;2.33;2.10;;;19.10;46.10;;;;;;4982722;28;20270;-86
2022/04/21 11:36:41;;;;;;;2.22;2.03;;;19.00;46.30;;;;;;4985741;28;20258;-87
2022/04/21 11:39:08;;;;;;;2.60;2.15;;;19.00;46.00;;;;;;4966692;28;20221;-88
2022/04/21 11:41:53;;;;;;;2.83;2.38;;;19.10;46.10;;;;;;4953197;28;20183;-89
2022/04/21 11:44:33;;;;;;;3.33;2.15;;;19.00;45.90;;;;;;4989232;28;20263;-88
2022/04/21 11:47:03;;;;;;;2.33;2.13;;;19.10;45.80;;;;;;4985976;28;20637;-89
2022/04/21 11:49:32;;;;;;;2.25;2.05;;;19.10;46.00;;;;;;5019167;28;20213;-85
2022/04/21 11:51:58;;;;;;;2.78;2.40;;;19.10;46.00;;;;;;5021342;28;20214;-87
2022/04/21 11:54:31;;;;;;;3.78;2.40;;;19.10;46.10;;;;;;5019463;28;20225;-88
2022/04/21 11:57:02;;;;;;;2.88;2.10;;;19.10;46.20;;;;;;5018532;28;20190;-88
2022/04/21 11:59:43;;;;;;;2.70;2.20;;;19.10;46.30;;;;;;5023328;28;20182;-87
2022/04/21 12:08:49;;;;;;;2.17;1.80;;;19.10;46.40;;;;;;5004617;28;20248;-87
2022/04/21 12:11:18;;;;;;;2.63;2.17;;;19.20;46.70;;;;;;5004403;28;20274;-87
2022/04/21 12:14:13;;;;;;;4.57;2.35;;;19.30;45.90;;;;;;4987096;28;20261;-89
2022/04/21 12:16:54;;;;;;;4.03;2.08;;;19.20;46.00;;;;;;4986471;28;20164;-86
2022/04/21 12:19:39;;;;;;;3.33;2.00;;;19.20;46.20;;;;;;4990864;28;20274;-85
2022/04/21 12:22:56;;;;;;;2.78;2.00;;;19.20;46.10;;;;;;4959679;28;20267;-88
2022/04/21 12:26:41;;;;;;;5.57;2.17;;;19.20;46.30;;;;;;5002970;28;20195;-88
2022/04/21 12:29:14;;;;;;;3.10;2.20;;;19.20;46.20;;;;;;4905610;29;20254;-87
2022/04/21 12:32:30;;;;;;;2.50;2.08;;;19.20;46.10;;;;;;4907508;29;20223;-87
2022/04/21 12:41:09;;;;;;;3.40;1.98;;;19.30;46.00;;;;;;4808233;29;20682;-85
2022/04/21 12:44:17;;;;;;;2.50;2.15;;;19.30;45.90;;;;;;4811564;29;20266;-88
2022/04/21 12:46:36;;;;;;;4.03;2.38;;;19.20;45.90;;;;;;4785418;29;20198;-85
2022/04/21 12:49:04;;;;;;;3.20;2.30;;;19.30;46.00;;;;;;4811710;29;20212;-88
2022/04/21 12:51:30;;;;;;;2.30;2.10;;;19.30;46.00;;;;;;4812092;29;20296;-86
2022/04/21 12:53:57;;;;;;;2.33;2.10;;;19.30;45.60;;;;;;4826138;29;20193;-86
2022/04/21 12:56:38;;;;;;;2.83;2.20;;;19.30;46.00;;;;;;4826358;29;20208;-84
2022/04/21 12:59:03;;;;;;;2.35;2.08;;;19.30;45.60;;;;;;4828779;29;20208;-85
2022/04/21 13:01:29;;;;;;;2.00;1.77;;;19.40;45.50;;;;;;4809107;29;20218;-85
2022/04/21 13:03:59;;;;;;;2.72;2.10;;;19.40;45.60;;;;;;4815839;29;20288;-85
2022/04/21 13:06:29;;;;;;;3.28;2.17;;;19.30;45.70;;;;;;4902696;29;20191;-85
2022/04/21 13:08:56;;;;;;;2.40;2.20;;;19.40;45.60;;;;;;4887493;29;20235;-86
2022/04/21 13:11:21;;;;;;;3.03;2.15;;;19.40;45.50;;;;;;4900483;29;20167;-86
2022/04/21 13:13:47;;;;;;;3.40;2.20;;;19.50;45.10;;;;;;4894735;28;20246;-87
2022/04/21 13:16:13;;;;;;;2.42;2.05;;;19.40;45.40;;;;;;4992443;28;20184;-86
2022/04/21 13:18:39;;;;;;;2.50;2.05;;;19.50;45.50;;;;;;4961795;28;20271;-84
2022/04/21 13:23:47;;;;;;;3.83;2.33;;;19.50;45.80;;;;;;4983592;28;20252;-85
2022/04/21 13:26:12;;;;;;;2.70;1.98;;;19.40;45.30;;;;;;5004433;28;20193;-85
2022/04/21 13:28:38;;;;;;;3.30;2.15;;;19.50;45.50;;;;;;5045490;28;20167;-85
2022/04/21 13:33:47;;;;;;;2.78;1.88;;;19.50;45.20;;;;;;5049738;28;20178;-85
2022/04/21 13:36:16;;;;;;;2.90;2.15;;;19.60;44.80;;;;;;5037365;28;20197;-87
2022/04/21 13:38:43;;;;;;;3.13;1.92;;;19.50;44.80;;;;;;5039290;28;20159;-86
2022/04/21 13:41:09;;;;;;;2.63;2.00;;;19.60;45.00;;;;;;5055059;28;20593;-86
2022/04/21 13:43:39;;;;;;;3.53;2.03;;;19.60;44.80;;;;;;5037577;28;20173;-86
2022/04/21 13:46:04;;;;;;;4.70;2.30;;;19.60;45.30;;;;;;5037511;28;20158;-86
2022/04/21 13:48:35;;;;;;;4.47;2.50;;;19.50;45.20;;;;;;5043457;28;20158;-86
2022/04/21 13:51:04;;;;;;;7.30;2.40;;;19.60;45.60;;;;;;5044075;28;20289;-84
2022/04/21 13:53:31;;;;;;;5.57;2.20;;;19.60;46.20;;;;;;5039211;28;20232;-86
2022/04/21 13:55:58;;;;;;;9.45;2.40;;;19.60;46.40;;;;;;5040060;28;20178;-87
2022/04/21 13:58:28;;;;;;;7.20;2.58;;;19.60;46.40;;;;;;5042587;28;20209;-87
2022/04/21 14:00:55;;;;;;;5.45;2.38;;;19.50;46.20;;;;;;5024472;28;20238;-86
2022/04/21 14:03:20;;;;;;;6.63;2.10;;;19.50;46.10;;;;;;5056083;28;20162;-87
2022/04/21 14:05:49;;;;;;;5.53;2.17;;;19.50;45.90;;;;;;5038059;28;20191;-86
2022/04/21 14:08:15;;;;;;;4.43;1.92;;;19.60;46.00;;;;;;5028043;28;20593;-87
2022/04/21 14:10:42;;;;;;;4.05;2.35;;;19.60;45.80;;;;;;5038326;28;20320;-87
2022/04/21 14:13:07;;;;;;;8.35;2.30;;;19.60;45.80;;;;;;5042318;28;20197;-87